首页
METAR-TAF:

METAR-TAF

机场 :

馬林迪, 肯尼亚

纬度: 03-14S, 经度: 040-06E, 海拔: 20米

当前天气观测

该预报发布于1小时和3分钟前的05:00 UTC
风速10节,风向
温度 26°C
湿度 74%
气压 1016 hPa
能见度10公里或以上
多云层高于2000英尺

METAR: HKML 150500Z 18010KT 9999 BKN020 26/21 Q1016

时间: 09:03 (06:03 UTC)

预报

该预报发布于1小时和3分钟前的05:00 UTC
预报有效从15日的 06点(UTC)到 16日的 06点(UTC)
风速15节,风向
能见度10公里或以上
散云层高于2000英尺
成为
从 15日的 15点(UTC)到 15日的 18点(UTC)
散云层高于2000英尺
多云层高于8000英尺
成为
从 15日的 21点(UTC)到 15日的 23点(UTC)
风速5节,风向
散云层高于2000英尺

TAF: HKML 150500Z 1506/1606 18015KT 9999 SCT020 BECMG 1515/1518 SCT020 BKN080 BECMG 1521/1523 18005KT SCT020

超过4000个机场的气象观测和天气预报(METAR&TAF报告)。

可查询的气象台以黄色和红色小点在地图上表示。

将鼠标移到小点上方,可查看气象台名称。

然后点击查看天气观测和预报。

如需切换地图:点击带黑十字的绿色按钮放大地图;点击带横线的绿色按钮缩小地图;或者点击绿色箭头查看邻近地区的地图。


METAR-TAF: